sensor_id;sensor_type;location;lat;lon;timestamp;temperature;humidity
27114;DHT22;14648;49.730;8.614;2023-04-24T00:01:41;12.80;60.50
27114;DHT22;14648;49.730;8.614;2023-04-24T00:04:08;12.90;60.30
27114;DHT22;14648;49.730;8.614;2023-04-24T00:06:36;12.90;60.40
27114;DHT22;14648;49.730;8.614;2023-04-24T00:09:05;12.90;60.40
27114;DHT22;14648;49.730;8.614;2023-04-24T00:11:31;12.90;60.50
27114;DHT22;14648;49.730;8.614;2023-04-24T00:13:57;12.90;60.50
27114;DHT22;14648;49.730;8.614;2023-04-24T00:16:23;12.90;60.50
27114;DHT22;14648;49.730;8.614;2023-04-24T00:18:49;12.90;60.60
27114;DHT22;14648;49.730;8.614;2023-04-24T00:21:15;12.90;60.70
27114;DHT22;14648;49.730;8.614;2023-04-24T00:23:43;12.90;60.80
27114;DHT22;14648;49.730;8.614;2023-04-24T00:26:09;13.00;60.80
27114;DHT22;14648;49.730;8.614;2023-04-24T00:28:35;12.90;60.80
27114;DHT22;14648;49.730;8.614;2023-04-24T00:31:01;13.00;60.80
27114;DHT22;14648;49.730;8.614;2023-04-24T00:33:27;12.90;60.80
27114;DHT22;14648;49.730;8.614;2023-04-24T00:35:52;12.90;60.80
27114;DHT22;14648;49.730;8.614;2023-04-24T00:38:18;12.90;60.80
27114;DHT22;14648;49.730;8.614;2023-04-24T00:40:44;12.90;60.90
27114;DHT22;14648;49.730;8.614;2023-04-24T00:43:11;12.90;60.90
27114;DHT22;14648;49.730;8.614;2023-04-24T00:45:37;13.00;60.90
27114;DHT22;14648;49.730;8.614;2023-04-24T00:48:03;12.90;60.90
27114;DHT22;14648;49.730;8.614;2023-04-24T00:50:30;13.00;61.00
27114;DHT22;14648;49.730;8.614;2023-04-24T00:52:56;13.00;61.00
27114;DHT22;14648;49.730;8.614;2023-04-24T00:55:22;12.90;61.10
27114;DHT22;14648;49.730;8.614;2023-04-24T00:57:48;12.90;61.10
27114;DHT22;14648;49.730;8.614;2023-04-24T01:00:16;12.90;61.10
27114;DHT22;14648;49.730;8.614;2023-04-24T01:02:44;12.90;61.10
27114;DHT22;14648;49.730;8.614;2023-04-24T01:05:11;12.90;61.20
27114;DHT22;14648;49.730;8.614;2023-04-24T01:07:39;12.90;61.20
27114;DHT22;14648;49.730;8.614;2023-04-24T01:10:12;12.90;61.20
27114;DHT22;14648;49.730;8.614;2023-04-24T01:12:38;12.80;61.20
27114;DHT22;14648;49.730;8.614;2023-04-24T01:15:05;12.80;61.20
27114;DHT22;14648;49.730;8.614;2023-04-24T01:17:32;12.80;61.20
27114;DHT22;14648;49.730;8.614;2023-04-24T01:19:59;12.80;61.30
27114;DHT22;14648;49.730;8.614;2023-04-24T01:22:26;12.70;61.40
27114;DHT22;14648;49.730;8.614;2023-04-24T01:24:55;12.70;61.40
27114;DHT22;14648;49.730;8.614;2023-04-24T01:27:21;12.70;61.40
27114;DHT22;14648;49.730;8.614;2023-04-24T01:29:47;12.70;61.40
27114;DHT22;14648;49.730;8.614;2023-04-24T01:32:15;12.70;61.30
27114;DHT22;14648;49.730;8.614;2023-04-24T01:34:40;12.70;61.20
27114;DHT22;14648;49.730;8.614;2023-04-24T01:37:06;12.70;61.20
27114;DHT22;14648;49.730;8.614;2023-04-24T01:39:32;12.70;61.20
27114;DHT22;14648;49.730;8.614;2023-04-24T01:41:59;12.80;61.30
27114;DHT22;14648;49.730;8.614;2023-04-24T01:44:26;12.80;61.30
27114;DHT22;14648;49.730;8.614;2023-04-24T01:46:52;12.80;61.30
27114;DHT22;14648;49.730;8.614;2023-04-24T01:49:19;12.80;61.20
27114;DHT22;14648;49.730;8.614;2023-04-24T01:51:45;12.80;61.30
27114;DHT22;14648;49.730;8.614;2023-04-24T01:54:11;12.90;61.40
27114;DHT22;14648;49.730;8.614;2023-04-24T01:56:40;12.80;61.30
27114;DHT22;14648;49.730;8.614;2023-04-24T01:59:10;12.80;61.40
27114;DHT22;14648;49.730;8.614;2023-04-24T02:01:37;12.80;61.40
27114;DHT22;14648;49.730;8.614;2023-04-24T02:04:04;12.80;61.40
27114;DHT22;14648;49.730;8.614;2023-04-24T02:06:30;12.80;61.50
27114;DHT22;14648;49.730;8.614;2023-04-24T02:08:57;12.80;61.60
27114;DHT22;14648;49.730;8.614;2023-04-24T02:11:24;12.80;61.50
27114;DHT22;14648;49.730;8.614;2023-04-24T02:13:50;12.80;61.50
27114;DHT22;14648;49.730;8.614;2023-04-24T02:16:17;12.80;61.50
27114;DHT22;14648;49.730;8.614;2023-04-24T02:18:43;12.80;61.50
27114;DHT22;14648;49.730;8.614;2023-04-24T02:21:09;12.80;61.60
27114;DHT22;14648;49.730;8.614;2023-04-24T02:23:35;12.80;61.70
27114;DHT22;14648;49.730;8.614;2023-04-24T02:26:01;12.80;61.70
27114;DHT22;14648;49.730;8.614;2023-04-24T02:28:27;12.80;61.80
27114;DHT22;14648;49.730;8.614;2023-04-24T02:30:52;12.80;62.50
27114;DHT22;14648;49.730;8.614;2023-04-24T02:33:18;12.90;61.90
27114;DHT22;14648;49.730;8.614;2023-04-24T02:35:43;12.90;61.90
27114;DHT22;14648;49.730;8.614;2023-04-24T02:38:09;12.90;61.90
27114;DHT22;14648;49.730;8.614;2023-04-24T02:40:35;12.90;62.00
27114;DHT22;14648;49.730;8.614;2023-04-24T02:43:03;12.80;62.00
27114;DHT22;14648;49.730;8.614;2023-04-24T02:45:29;12.70;62.40
27114;DHT22;14648;49.730;8.614;2023-04-24T02:47:55;12.60;62.70
27114;DHT22;14648;49.730;8.614;2023-04-24T02:50:20;12.50;63.00
27114;DHT22;14648;49.730;8.614;2023-04-24T02:52:46;12.40;63.30
27114;DHT22;14648;49.730;8.614;2023-04-24T02:55:12;12.40;63.50
27114;DHT22;14648;49.730;8.614;2023-04-24T02:57:41;12.40;63.70
27114;DHT22;14648;49.730;8.614;2023-04-24T03:00:07;12.30;64.00
27114;DHT22;14648;49.730;8.614;2023-04-24T03:02:34;12.20;63.90
27114;DHT22;14648;49.730;8.614;2023-04-24T03:05:00;12.10;64.00
27114;DHT22;14648;49.730;8.614;2023-04-24T03:07:25;12.10;64.30
27114;DHT22;14648;49.730;8.614;2023-04-24T03:09:51;12.00;64.20
27114;DHT22;14648;49.730;8.614;2023-04-24T03:12:17;12.00;64.30
27114;DHT22;14648;49.730;8.614;2023-04-24T03:14:43;12.00;64.50
27114;DHT22;14648;49.730;8.614;2023-04-24T03:17:09;12.00;64.60
27114;DHT22;14648;49.730;8.614;2023-04-24T03:19:35;12.00;64.70
27114;DHT22;14648;49.730;8.614;2023-04-24T03:22:02;12.00;65.60
27114;DHT22;14648;49.730;8.614;2023-04-24T03:24:28;12.00;65.00
27114;DHT22;14648;49.730;8.614;2023-04-24T03:26:54;11.90;65.20
27114;DHT22;14648;49.730;8.614;2023-04-24T03:29:21;11.90;65.10
27114;DHT22;14648;49.730;8.614;2023-04-24T03:31:47;11.90;65.20
27114;DHT22;14648;49.730;8.614;2023-04-24T03:34:12;11.80;65.20
27114;DHT22;14648;49.730;8.614;2023-04-24T03:36:38;11.80;65.30
27114;DHT22;14648;49.730;8.614;2023-04-24T03:39:04;11.80;65.50
27114;DHT22;14648;49.730;8.614;2023-04-24T03:41:29;11.80;65.60
27114;DHT22;14648;49.730;8.614;2023-04-24T03:43:56;11.80;65.60
27114;DHT22;14648;49.730;8.614;2023-04-24T03:46:21;11.80;65.70
27114;DHT22;14648;49.730;8.614;2023-04-24T03:48:47;11.70;65.70
27114;DHT22;14648;49.730;8.614;2023-04-24T03:51:13;11.70;65.80
27114;DHT22;14648;49.730;8.614;2023-04-24T03:53:38;11.70;65.90
27114;DHT22;14648;49.730;8.614;2023-04-24T03:56:05;11.70;66.00
27114;DHT22;14648;49.730;8.614;2023-04-24T03:58:30;11.60;66.00
27114;DHT22;14648;49.730;8.614;2023-04-24T04:00:56;11.60;66.00
27114;DHT22;14648;49.730;8.614;2023-04-24T04:03:25;11.60;66.10
27114;DHT22;14648;49.730;8.614;2023-04-24T04:05:51;11.50;66.20
27114;DHT22;14648;49.730;8.614;2023-04-24T04:08:17;11.50;66.20
27114;DHT22;14648;49.730;8.614;2023-04-24T04:10:42;11.50;66.30
27114;DHT22;14648;49.730;8.614;2023-04-24T04:13:08;11.40;66.30
27114;DHT22;14648;49.730;8.614;2023-04-24T04:15:34;11.40;66.10
27114;DHT22;14648;49.730;8.614;2023-04-24T04:17:59;11.40;66.10
27114;DHT22;14648;49.730;8.614;2023-04-24T04:20:25;11.30;66.10
27114;DHT22;14648;49.730;8.614;2023-04-24T04:22:51;11.30;66.10
27114;DHT22;14648;49.730;8.614;2023-04-24T04:25:17;11.30;66.20
27114;DHT22;14648;49.730;8.614;2023-04-24T04:27:45;11.20;66.00
27114;DHT22;14648;49.730;8.614;2023-04-24T04:30:13;11.20;66.10
27114;DHT22;14648;49.730;8.614;2023-04-24T04:32:39;11.10;66.10
27114;DHT22;14648;49.730;8.614;2023-04-24T04:35:05;11.10;66.20
27114;DHT22;14648;49.730;8.614;2023-04-24T04:37:34;11.00;66.10
27114;DHT22;14648;49.730;8.614;2023-04-24T04:40:01;11.00;66.20
27114;DHT22;14648;49.730;8.614;2023-04-24T04:42:32;11.00;66.10
27114;DHT22;14648;49.730;8.614;2023-04-24T04:45:00;10.90;66.00
27114;DHT22;14648;49.730;8.614;2023-04-24T04:47:26;10.90;66.10
27114;DHT22;14648;49.730;8.614;2023-04-24T04:49:53;10.90;66.00
27114;DHT22;14648;49.730;8.614;2023-04-24T04:52:20;10.80;65.80
27114;DHT22;14648;49.730;8.614;2023-04-24T04:54:45;10.80;65.80
27114;DHT22;14648;49.730;8.614;2023-04-24T04:57:11;10.80;65.80
27114;DHT22;14648;49.730;8.614;2023-04-24T04:59:37;10.80;65.80
27114;DHT22;14648;49.730;8.614;2023-04-24T05:02:03;10.70;65.70
27114;DHT22;14648;49.730;8.614;2023-04-24T05:04:29;10.70;65.70
27114;DHT22;14648;49.730;8.614;2023-04-24T05:06:55;10.70;65.70
27114;DHT22;14648;49.730;8.614;2023-04-24T05:09:21;10.70;65.60
27114;DHT22;14648;49.730;8.614;2023-04-24T05:11:47;10.70;65.60
27114;DHT22;14648;49.730;8.614;2023-04-24T05:14:13;10.60;65.50
27114;DHT22;14648;49.730;8.614;2023-04-24T05:16:39;10.70;65.50
27114;DHT22;14648;49.730;8.614;2023-04-24T05:19:05;10.70;65.50
27114;DHT22;14648;49.730;8.614;2023-04-24T05:21:31;10.70;65.40
27114;DHT22;14648;49.730;8.614;2023-04-24T05:23:57;10.70;65.40
27114;DHT22;14648;49.730;8.614;2023-04-24T05:26:23;10.70;65.40
27114;DHT22;14648;49.730;8.614;2023-04-24T05:28:48;10.70;65.40
27114;DHT22;14648;49.730;8.614;2023-04-24T05:31:15;10.70;65.40
27114;DHT22;14648;49.730;8.614;2023-04-24T05:33:41;10.70;65.40
27114;DHT22;14648;49.730;8.614;2023-04-24T05:36:07;10.70;65.20
27114;DHT22;14648;49.730;8.614;2023-04-24T05:38:32;10.70;65.20
27114;DHT22;14648;49.730;8.614;2023-04-24T05:40:58;10.80;65.10
27114;DHT22;14648;49.730;8.614;2023-04-24T05:43:24;10.80;65.00
27114;DHT22;14648;49.730;8.614;2023-04-24T05:45:50;10.80;65.00
27114;DHT22;14648;49.730;8.614;2023-04-24T05:48:16;10.80;64.90
27114;DHT22;14648;49.730;8.614;2023-04-24T05:50:42;10.80;64.80
27114;DHT22;14648;49.730;8.614;2023-04-24T05:53:08;10.80;64.80
27114;DHT22;14648;49.730;8.614;2023-04-24T05:55:36;10.90;64.90
27114;DHT22;14648;49.730;8.614;2023-04-24T05:58:02;10.90;64.80
27114;DHT22;14648;49.730;8.614;2023-04-24T06:00:28;11.00;64.70
27114;DHT22;14648;49.730;8.614;2023-04-24T06:02:54;11.00;64.60
27114;DHT22;14648;49.730;8.614;2023-04-24T06:05:20;11.00;64.50
27114;DHT22;14648;49.730;8.614;2023-04-24T06:07:46;11.00;64.40
27114;DHT22;14648;49.730;8.614;2023-04-24T06:10:12;11.00;64.40
27114;DHT22;14648;49.730;8.614;2023-04-24T06:12:37;11.00;64.30
27114;DHT22;14648;49.730;8.614;2023-04-24T06:15:04;11.00;64.20
27114;DHT22;14648;49.730;8.614;2023-04-24T06:17:30;11.10;64.10
27114;DHT22;14648;49.730;8.614;2023-04-24T06:19:57;11.10;63.90
27114;DHT22;14648;49.730;8.614;2023-04-24T06:22:22;11.10;63.70
27114;DHT22;14648;49.730;8.614;2023-04-24T06:24:48;11.10;63.60
27114;DHT22;14648;49.730;8.614;2023-04-24T06:27:14;11.10;63.50
27114;DHT22;14648;49.730;8.614;2023-04-24T06:29:40;11.10;63.50
27114;DHT22;14648;49.730;8.614;2023-04-24T06:32:05;11.10;63.40
27114;DHT22;14648;49.730;8.614;2023-04-24T06:34:31;11.10;63.40
27114;DHT22;14648;49.730;8.614;2023-04-24T06:36:59;11.20;63.30
27114;DHT22;14648;49.730;8.614;2023-04-24T06:39:25;11.20;63.20
27114;DHT22;14648;49.730;8.614;2023-04-24T06:41:51;11.30;63.20
27114;DHT22;14648;49.730;8.614;2023-04-24T06:44:17;11.30;63.10
27114;DHT22;14648;49.730;8.614;2023-04-24T06:46:43;11.30;63.00
27114;DHT22;14648;49.730;8.614;2023-04-24T06:49:09;11.30;62.70
27114;DHT22;14648;49.730;8.614;2023-04-24T06:51:35;11.30;62.70
27114;DHT22;14648;49.730;8.614;2023-04-24T06:54:00;11.30;62.60
27114;DHT22;14648;49.730;8.614;2023-04-24T06:56:27;11.30;62.50
27114;DHT22;14648;49.730;8.614;2023-04-24T06:58:54;11.30;62.50
27114;DHT22;14648;49.730;8.614;2023-04-24T07:01:20;11.30;62.50
27114;DHT22;14648;49.730;8.614;2023-04-24T07:03:46;11.40;62.50
27114;DHT22;14648;49.730;8.614;2023-04-24T07:06:12;11.40;62.40
27114;DHT22;14648;49.730;8.614;2023-04-24T07:08:38;11.40;62.30
27114;DHT22;14648;49.730;8.614;2023-04-24T07:11:04;11.40;62.20
27114;DHT22;14648;49.730;8.614;2023-04-24T07:13:30;11.40;62.20
27114;DHT22;14648;49.730;8.614;2023-04-24T07:15:56;11.40;62.10
27114;DHT22;14648;49.730;8.614;2023-04-24T07:18:22;11.40;62.10
27114;DHT22;14648;49.730;8.614;2023-04-24T07:20:48;11.50;62.10
27114;DHT22;14648;49.730;8.614;2023-04-24T07:23:17;11.50;62.10
27114;DHT22;14648;49.730;8.614;2023-04-24T07:25:43;11.50;62.00
27114;DHT22;14648;49.730;8.614;2023-04-24T07:28:09;11.60;62.00
27114;DHT22;14648;49.730;8.614;2023-04-24T07:30:35;11.60;61.90
27114;DHT22;14648;49.730;8.614;2023-04-24T07:33:01;11.70;61.80
27114;DHT22;14648;49.730;8.614;2023-04-24T07:35:26;11.70;61.60
27114;DHT22;14648;49.730;8.614;2023-04-24T07:37:55;11.70;61.50
27114;DHT22;14648;49.730;8.614;2023-04-24T07:40:22;11.80;61.50
27114;DHT22;14648;49.730;8.614;2023-04-24T07:42:48;11.80;61.40
27114;DHT22;14648;49.730;8.614;2023-04-24T07:45:14;11.80;61.20
27114;DHT22;14648;49.730;8.614;2023-04-24T07:47:43;11.80;61.00
27114;DHT22;14648;49.730;8.614;2023-04-24T07:50:11;11.90;61.10
27114;DHT22;14648;49.730;8.614;2023-04-24T07:52:38;12.00;60.80
27114;DHT22;14648;49.730;8.614;2023-04-24T07:55:04;12.00;60.70
27114;DHT22;14648;49.730;8.614;2023-04-24T07:57:30;12.10;60.90
27114;DHT22;14648;49.730;8.614;2023-04-24T07:59:56;12.30;60.80
27114;DHT22;14648;49.730;8.614;2023-04-24T08:02:22;12.30;60.60
27114;DHT22;14648;49.730;8.614;2023-04-24T08:04:52;12.40;60.50
27114;DHT22;14648;49.730;8.614;2023-04-24T08:07:19;12.40;60.40
27114;DHT22;14648;49.730;8.614;2023-04-24T08:09:45;12.40;60.20
27114;DHT22;14648;49.730;8.614;2023-04-24T08:12:11;12.40;59.80
27114;DHT22;14648;49.730;8.614;2023-04-24T08:14:37;12.40;59.40
27114;DHT22;14648;49.730;8.614;2023-04-24T08:17:03;12.60;59.10
27114;DHT22;14648;49.730;8.614;2023-04-24T08:19:29;12.50;58.60
27114;DHT22;14648;49.730;8.614;2023-04-24T08:21:55;12.60;58.10
27114;DHT22;14648;49.730;8.614;2023-04-24T08:24:21;12.60;57.80
27114;DHT22;14648;49.730;8.614;2023-04-24T08:26:47;12.50;57.40
27114;DHT22;14648;49.730;8.614;2023-04-24T08:29:16;12.60;57.20
27114;DHT22;14648;49.730;8.614;2023-04-24T08:31:41;12.60;56.90
27114;DHT22;14648;49.730;8.614;2023-04-24T08:34:07;12.50;56.70
27114;DHT22;14648;49.730;8.614;2023-04-24T08:36:35;12.50;56.70
27114;DHT22;14648;49.730;8.614;2023-04-24T08:39:00;12.50;56.40
27114;DHT22;14648;49.730;8.614;2023-04-24T08:41:27;12.50;56.30
27114;DHT22;14648;49.730;8.614;2023-04-24T08:43:53;12.50;55.90
27114;DHT22;14648;49.730;8.614;2023-04-24T08:46:20;12.60;55.80
27114;DHT22;14648;49.730;8.614;2023-04-24T08:48:48;12.80;55.90
27114;DHT22;14648;49.730;8.614;2023-04-24T08:51:15;13.00;55.40
27114;DHT22;14648;49.730;8.614;2023-04-24T08:53:41;13.20;54.80
27114;DHT22;14648;49.730;8.614;2023-04-24T08:56:07;13.30;54.70
27114;DHT22;14648;49.730;8.614;2023-04-24T08:58:33;13.30;54.30
27114;DHT22;14648;49.730;8.614;2023-04-24T09:00:59;13.30;54.20
27114;DHT22;14648;49.730;8.614;2023-04-24T09:03:27;13.30;54.10
27114;DHT22;14648;49.730;8.614;2023-04-24T09:05:55;13.20;53.60
27114;DHT22;14648;49.730;8.614;2023-04-24T09:08:24;13.10;53.30
27114;DHT22;14648;49.730;8.614;2023-04-24T09:10:51;13.00;53.20
27114;DHT22;14648;49.730;8.614;2023-04-24T09:13:18;12.80;53.20
27114;DHT22;14648;49.730;8.614;2023-04-24T09:15:45;12.70;53.30
27114;DHT22;14648;49.730;8.614;2023-04-24T09:18:11;12.70;53.40
27114;DHT22;14648;49.730;8.614;2023-04-24T09:20:57;12.60;53.30
27114;DHT22;14648;49.730;8.614;2023-04-24T09:23:29;12.60;53.10
27114;DHT22;14648;49.730;8.614;2023-04-24T09:25:57;12.60;53.10
27114;DHT22;14648;49.730;8.614;2023-04-24T09:28:31;12.60;53.00
27114;DHT22;14648;49.730;8.614;2023-04-24T09:31:09;12.60;52.90
27114;DHT22;14648;49.730;8.614;2023-04-24T09:33:40;12.60;52.90
27114;DHT22;14648;49.730;8.614;2023-04-24T09:36:06;12.60;53.10
27114;DHT22;14648;49.730;8.614;2023-04-24T09:38:38;12.60;53.00
27114;DHT22;14648;49.730;8.614;2023-04-24T09:41:08;12.60;52.90
27114;DHT22;14648;49.730;8.614;2023-04-24T09:43:34;12.60;53.00
27114;DHT22;14648;49.730;8.614;2023-04-24T09:46:05;12.60;53.10
27114;DHT22;14648;49.730;8.614;2023-04-24T09:48:36;12.60;52.80
27114;DHT22;14648;49.730;8.614;2023-04-24T09:51:04;12.60;52.80
27114;DHT22;14648;49.730;8.614;2023-04-24T09:53:32;12.60;52.80
27114;DHT22;14648;49.730;8.614;2023-04-24T09:56:11;12.60;52.70
27114;DHT22;14648;49.730;8.614;2023-04-24T09:58:38;12.60;52.60
27114;DHT22;14648;49.730;8.614;2023-04-24T10:01:04;12.60;52.70
27114;DHT22;14648;49.730;8.614;2023-04-24T10:03:31;12.60;52.60
27114;DHT22;14648;49.730;8.614;2023-04-24T10:06:02;12.60;52.60
27114;DHT22;14648;49.730;8.614;2023-04-24T10:08:34;12.70;52.80
27114;DHT22;14648;49.730;8.614;2023-04-24T10:11:01;12.70;52.50
27114;DHT22;14648;49.730;8.614;2023-04-24T10:13:28;12.60;52.50
27114;DHT22;14648;49.730;8.614;2023-04-24T10:15:54;12.60;52.50
27114;DHT22;14648;49.730;8.614;2023-04-24T10:18:21;12.70;52.50
27114;DHT22;14648;49.730;8.614;2023-04-24T10:20:48;12.70;52.50
27114;DHT22;14648;49.730;8.614;2023-04-24T10:23:14;12.70;52.60
27114;DHT22;14648;49.730;8.614;2023-04-24T10:25:40;12.70;53.30
27114;DHT22;14648;49.730;8.614;2023-04-24T10:28:06;12.80;52.60
27114;DHT22;14648;49.730;8.614;2023-04-24T10:30:34;12.80;52.70
27114;DHT22;14648;49.730;8.614;2023-04-24T10:33:05;12.90;52.80
27114;DHT22;14648;49.730;8.614;2023-04-24T10:35:34;12.90;52.70
27114;DHT22;14648;49.730;8.614;2023-04-24T10:38:08;12.80;52.60
27114;DHT22;14648;49.730;8.614;2023-04-24T10:40:36;12.80;52.50
27114;DHT22;14648;49.730;8.614;2023-04-24T10:43:03;12.70;52.70
27114;DHT22;14648;49.730;8.614;2023-04-24T10:45:31;12.70;52.80
27114;DHT22;14648;49.730;8.614;2023-04-24T10:47:59;12.70;52.80
27114;DHT22;14648;49.730;8.614;2023-04-24T10:50:45;12.70;52.80
27114;DHT22;14648;49.730;8.614;2023-04-24T10:53:17;12.60;52.70
27114;DHT22;14648;49.730;8.614;2023-04-24T10:56:05;12.70;52.80
27114;DHT22;14648;49.730;8.614;2023-04-24T10:58:40;12.70;52.70
27114;DHT22;14648;49.730;8.614;2023-04-24T11:01:26;12.70;52.70
27114;DHT22;14648;49.730;8.614;2023-04-24T11:04:01;12.70;52.60
27114;DHT22;14648;49.730;8.614;2023-04-24T11:06:37;12.70;52.60
27114;DHT22;14648;49.730;8.614;2023-04-24T11:09:08;12.80;52.60
27114;DHT22;14648;49.730;8.614;2023-04-24T11:11:36;12.90;52.60
27114;DHT22;14648;49.730;8.614;2023-04-24T11:14:04;12.90;52.50
27114;DHT22;14648;49.730;8.614;2023-04-24T11:16:50;12.90;52.40
27114;DHT22;14648;49.730;8.614;2023-04-24T11:19:20;13.00;52.40
27114;DHT22;14648;49.730;8.614;2023-04-24T11:22:00;13.00;52.30
27114;DHT22;14648;49.730;8.614;2023-04-24T11:27:20;13.10;52.00
27114;DHT22;14648;49.730;8.614;2023-04-24T11:35:05;13.10;51.60
27114;DHT22;14648;49.730;8.614;2023-04-24T11:37:38;13.20;51.50
27114;DHT22;14648;49.730;8.614;2023-04-24T11:40:10;13.30;52.00
27114;DHT22;14648;49.730;8.614;2023-04-24T11:45:17;13.40;51.50
27114;DHT22;14648;49.730;8.614;2023-04-24T11:47:43;13.40;51.30
27114;DHT22;14648;49.730;8.614;2023-04-24T11:50:12;13.40;51.30
27114;DHT22;14648;49.730;8.614;2023-04-24T11:52:44;13.40;51.30
27114;DHT22;14648;49.730;8.614;2023-04-24T11:57:39;13.40;51.50
27114;DHT22;14648;49.730;8.614;2023-04-24T12:00:05;13.40;51.30
27114;DHT22;14648;49.730;8.614;2023-04-24T12:02:31;13.40;51.30
27114;DHT22;14648;49.730;8.614;2023-04-24T12:04:57;13.40;51.30
27114;DHT22;14648;49.730;8.614;2023-04-24T12:07:23;13.50;51.30
27114;DHT22;14648;49.730;8.614;2023-04-24T12:09:57;13.60;51.20
27114;DHT22;14648;49.730;8.614;2023-04-24T12:12:26;13.70;51.00
27114;DHT22;14648;49.730;8.614;2023-04-24T12:14:57;13.70;50.90
27114;DHT22;14648;49.730;8.614;2023-04-24T12:17:26;13.70;50.60
27114;DHT22;14648;49.730;8.614;2023-04-24T12:20:03;13.70;50.60
27114;DHT22;14648;49.730;8.614;2023-04-24T12:22:53;13.60;50.50
27114;DHT22;14648;49.730;8.614;2023-04-24T12:25:24;13.60;50.70
27114;DHT22;14648;49.730;8.614;2023-04-24T12:28:08;13.40;50.80
27114;DHT22;14648;49.730;8.614;2023-04-24T12:30:42;13.20;51.40
27114;DHT22;14648;49.730;8.614;2023-04-24T12:33:10;12.90;52.00
27114;DHT22;14648;49.730;8.614;2023-04-24T12:35:36;12.80;52.40
27114;DHT22;14648;49.730;8.614;2023-04-24T12:38:15;12.70;53.20
27114;DHT22;14648;49.730;8.614;2023-04-24T12:40:43;12.60;53.60
27114;DHT22;14648;49.730;8.614;2023-04-24T12:43:17;12.60;53.60
27114;DHT22;14648;49.730;8.614;2023-04-24T12:45:44;12.50;53.80
27114;DHT22;14648;49.730;8.614;2023-04-24T12:48:10;12.60;53.60
27114;DHT22;14648;49.730;8.614;2023-04-24T12:50:37;12.60;53.80
27114;DHT22;14648;49.730;8.614;2023-04-24T12:53:03;12.70;53.90
27114;DHT22;14648;49.730;8.614;2023-04-24T12:55:29;12.80;53.90
27114;DHT22;14648;49.730;8.614;2023-04-24T12:57:54;12.90;54.00
27114;DHT22;14648;49.730;8.614;2023-04-24T13:00:21;13.10;53.90
27114;DHT22;14648;49.730;8.614;2023-04-24T13:02:47;13.20;53.80
27114;DHT22;14648;49.730;8.614;2023-04-24T13:05:14;13.30;53.70
27114;DHT22;14648;49.730;8.614;2023-04-24T13:07:41;13.40;53.50
27114;DHT22;14648;49.730;8.614;2023-04-24T13:10:07;13.50;53.20
27114;DHT22;14648;49.730;8.614;2023-04-24T13:12:33;13.50;52.60
27114;DHT22;14648;49.730;8.614;2023-04-24T13:15:00;13.50;52.40
27114;DHT22;14648;49.730;8.614;2023-04-24T13:17:26;13.50;52.10
27114;DHT22;14648;49.730;8.614;2023-04-24T13:19:53;13.50;52.10
27114;DHT22;14648;49.730;8.614;2023-04-24T13:22:20;13.50;51.90
27114;DHT22;14648;49.730;8.614;2023-04-24T13:24:46;13.50;51.80
27114;DHT22;14648;49.730;8.614;2023-04-24T13:27:14;13.60;51.80
27114;DHT22;14648;49.730;8.614;2023-04-24T13:29:40;13.60;51.40
27114;DHT22;14648;49.730;8.614;2023-04-24T13:32:07;13.70;51.30
27114;DHT22;14648;49.730;8.614;2023-04-24T13:34:33;13.80;51.00
27114;DHT22;14648;49.730;8.614;2023-04-24T13:37:00;13.80;50.80
27114;DHT22;14648;49.730;8.614;2023-04-24T13:39:27;13.80;50.80
27114;DHT22;14648;49.730;8.614;2023-04-24T13:41:54;13.80;50.80
27114;DHT22;14648;49.730;8.614;2023-04-24T13:44:20;13.90;51.10
27114;DHT22;14648;49.730;8.614;2023-04-24T13:46:49;13.90;51.20
27114;DHT22;14648;49.730;8.614;2023-04-24T13:49:17;13.90;51.10
27114;DHT22;14648;49.730;8.614;2023-04-24T13:51:43;14.00;51.20
27114;DHT22;14648;49.730;8.614;2023-04-24T13:54:09;14.20;51.20
27114;DHT22;14648;49.730;8.614;2023-04-24T13:56:35;14.40;50.90
27114;DHT22;14648;49.730;8.614;2023-04-24T13:59:00;14.50;50.50
27114;DHT22;14648;49.730;8.614;2023-04-24T14:01:26;14.50;50.20
27114;DHT22;14648;49.730;8.614;2023-04-24T14:03:53;14.60;50.20
27114;DHT22;14648;49.730;8.614;2023-04-24T14:06:19;14.60;50.10
27114;DHT22;14648;49.730;8.614;2023-04-24T14:08:46;14.60;49.90
27114;DHT22;14648;49.730;8.614;2023-04-24T14:11:12;14.60;49.50
27114;DHT22;14648;49.730;8.614;2023-04-24T14:13:41;14.60;49.30
27114;DHT22;14648;49.730;8.614;2023-04-24T14:16:07;14.50;49.30
27114;DHT22;14648;49.730;8.614;2023-04-24T14:18:33;14.50;49.30
27114;DHT22;14648;49.730;8.614;2023-04-24T14:20:59;14.50;49.30
27114;DHT22;14648;49.730;8.614;2023-04-24T14:23:26;14.40;49.00
27114;DHT22;14648;49.730;8.614;2023-04-24T14:25:52;14.40;49.10
27114;DHT22;14648;49.730;8.614;2023-04-24T14:28:19;14.40;49.10
27114;DHT22;14648;49.730;8.614;2023-04-24T14:30:46;14.40;48.90
27114;DHT22;14648;49.730;8.614;2023-04-24T14:33:12;14.40;48.80
27114;DHT22;14648;49.730;8.614;2023-04-24T14:35:39;14.30;48.70
27114;DHT22;14648;49.730;8.614;2023-04-24T14:38:07;14.30;48.70
27114;DHT22;14648;49.730;8.614;2023-04-24T14:40:33;14.30;48.60
27114;DHT22;14648;49.730;8.614;2023-04-24T14:42:58;14.30;48.40
27114;DHT22;14648;49.730;8.614;2023-04-24T14:45:25;14.30;48.30
27114;DHT22;14648;49.730;8.614;2023-04-24T14:47:52;14.40;48.30
27114;DHT22;14648;49.730;8.614;2023-04-24T14:50:18;14.40;48.20
27114;DHT22;14648;49.730;8.614;2023-04-24T14:52:44;14.40;48.10
27114;DHT22;14648;49.730;8.614;2023-04-24T14:55:10;14.50;48.10
27114;DHT22;14648;49.730;8.614;2023-04-24T14:57:36;14.40;47.80
27114;DHT22;14648;49.730;8.614;2023-04-24T15:00:06;14.40;47.70
27114;DHT22;14648;49.730;8.614;2023-04-24T15:02:34;14.40;47.50
27114;DHT22;14648;49.730;8.614;2023-04-24T15:05:02;14.40;47.70
27114;DHT22;14648;49.730;8.614;2023-04-24T15:07:28;14.40;47.70
27114;DHT22;14648;49.730;8.614;2023-04-24T15:09:54;14.40;47.40
27114;DHT22;14648;49.730;8.614;2023-04-24T15:12:21;14.30;47.40
27114;DHT22;14648;49.730;8.614;2023-04-24T15:14:46;14.30;47.30
27114;DHT22;14648;49.730;8.614;2023-04-24T15:17:12;14.30;47.50
27114;DHT22;14648;49.730;8.614;2023-04-24T15:19:38;14.30;47.50
27114;DHT22;14648;49.730;8.614;2023-04-24T15:22:03;14.30;47.50
27114;DHT22;14648;49.730;8.614;2023-04-24T15:24:29;14.30;47.40
27114;DHT22;14648;49.730;8.614;2023-04-24T15:26:55;14.30;47.50
27114;DHT22;14648;49.730;8.614;2023-04-24T15:29:23;14.30;47.60
27114;DHT22;14648;49.730;8.614;2023-04-24T15:31:49;14.30;47.60
27114;DHT22;14648;49.730;8.614;2023-04-24T15:34:14;14.30;47.90
27114;DHT22;14648;49.730;8.614;2023-04-24T15:36:40;14.40;47.90
27114;DHT22;14648;49.730;8.614;2023-04-24T15:39:06;14.40;48.00
27114;DHT22;14648;49.730;8.614;2023-04-24T15:41:31;14.40;48.00
27114;DHT22;14648;49.730;8.614;2023-04-24T15:43:57;14.50;48.10